Weather observations for the past three days for
Wahoo
Imperial (Metric)
Date Time (cdt) Wind (mph) Vis. (mi.) Weather Sky Cond. Temperature (ºF) Relative Humidity Wind Chill (°F) Heat Index (°F) Pressure Precipitation (in)
Air Dwpt 6 hour altimeter (in) sea level (mb) 1 hr 3 hr 6 hr
Max. Min.
09 09:35 SW 7 10.00 Partly Cloudy SCT120 70.2 34.5 27% 29.77 0.0
09 09:15 SW 7 10.00 Mostly Cloudy BKN120 66.7 36.3 33% 29.78 0.0
09 08:55 SW 8 10.00 Mostly Cloudy BKN120 64.4 36.5 36% 29.78 0.0
09 08:35 SW 6 10.00 Fair CLR 61 35.8 39% 29.77 0.0
09 08:15 SW 5 10.00 Fair CLR 56.8 37.8 49% 29.77 0.0
09 07:55 Calm 10.00 Partly Cloudy SCT120 55.6 35.8 48% 29.77 0.0
09 07:35 Calm 10.00 Fair CLR 53.8 36.7 53% 29.77 0.0
09 07:15 Calm 10.00 Fair CLR 51.1 37.2 59% 29.77 0.0
09 06:55 Calm 10.00 Fair CLR 43.2 35.1 56.3 42.6 73% 29.77 0.0
09 06:35 W 3 10.00 Partly Cloudy SCT120 46.2 32.9 60% 29.76 0.0
09 06:15 Calm 10.00 Partly Cloudy SCT120 43.5 32.9 66% 29.76 0.0
09 05:55 Calm 10.00 Fair CLR 48 33.8 58% 29.76 0.0
09 05:35 Calm 10.00 Fair CLR 49.3 33.8 55% 29.75 0.0
09 05:15 W 5 10.00 Fair CLR 50.4 35.4 57% 29.76 0.0
09 04:55 W 5 10.00 Fair CLR 49.3 35.1 58% 48 29.76 0.0
09 04:35 W 6 10.00 Fair CLR 48.7 34.9 59% 47 29.77 0.0
09 04:15 SW 5 10.00 Fair CLR 50.2 35.4 57% 29.76 0.0
09 03:55 W 5 10.00 Fair CLR 50 35.1 57% 49 29.76 0.0
09 03:35 W 3 10.00 Fair CLR 50 37.6 63% 29.76 0.0
09 03:15 Calm 10.00 Fair CLR 50.2 34.5 55% 29.76 0.0
09 02:55 Calm 10.00 Fair CLR 52.5 33.8 49% 29.76 0.0
09 02:35 NW 6 10.00 Fair CLR 51.6 32 47% 29.76 0.0
09 02:15 N 7 10.00 Fair CLR 52.7 31.8 45% 29.76 0.0
09 01:55 NW 8 10.00 Fair CLR 53.8 32 44% 29.76 0.0
09 01:15 NW 9 10.00 Fair CLR 54.9 32.5 43% 29.77 0.0
09 00:55 NW 9 10.00 Fair CLR 56.7 32.2 79.2 56.7 40% 29.77 0.0
09 00:35 NW 8 10.00 Fair CLR 57.2 32 39% 29.77 0.0
09 00:15 NW 10 10.00 Fair CLR 59.9 31.8 35% 29.77 0.0
08 23:55 NW 10 10.00 Fair CLR 59.5 32 35% 29.77 0.0
08 23:35 NW 8 10.00 Fair CLR 60.8 32 34% 29.76 0.0
08 23:15 NW 10 10.00 Fair CLR 62.8 31.6 31% 29.76 0.0
08 22:55 NW 9 10.00 Fair CLR 62.8 32 32% 29.76 0.0
08 22:35 NW 10 10.00 Fair CLR 64.6 33.6 32% 29.75 0.0
08 22:15 W 7 10.00 Fair CLR 60.8 33.6 36% 29.74 0.0
08 21:55 W 6 10.00 Fair CLR 65.8 32.5 29% 29.73 0.0
08 21:35 W 5 10.00 Fair CLR 67.1 32 27% 29.73 0.0
08 21:15 W 6 10.00 Fair CLR 66.6 36.1 33% 29.72 0.0
08 20:55 NW 5 10.00 Fair CLR 66.2 29.3 25% 29.71 0.0
08 20:35 NW 6 10.00 Fair CLR 68 31.8 26% 29.7 0.0
08 20:15 NW 7 10.00 Fair CLR 71.4 29.1 21% 29.7 0.0
08 19:55 NW 8 10.00 Fair CLR 73.6 27.7 18% 29.7 0.0
08 19:35 NW 13 10.00 Fair CLR 75.9 25.7 15% 76 29.69 0.0
08 19:15 NW 14 G 18 10.00 Partly Cloudy SCT110 78.3 27.5 15% 77 29.69 0.0
08 18:55 NW 14 G 18 10.00 Partly Cloudy SCT110 79.2 25.2 81.9 74.3 14% 78 29.69 0.0
08 18:35 NW 15 G 26 10.00 Partly Cloudy SCT110 79.7 26.2 14% 78 29.69 0.0
08 18:15 NW 16 G 23 10.00 Partly Cloudy SCT110 77.5 30.4 18% 77 29.69 0.0
08 17:55 W 13 G 24 10.00 Partly Cloudy SCT110 78.6 31.6 18% 78 29.69 0.0
08 17:35 W 8 10.00 Partly Cloudy SCT095 SCT110 80.4 29.1 15% 79 29.69 0.0
08 17:15 NW 7 G 18 10.00 Partly Cloudy SCT110 80.1 29.3 16% 78 29.7 0.0
08 16:55 W 13 G 24 10.00 Partly Cloudy SCT110 79.9 30.4 16% 78 29.7 0.0
08 16:35 NW 7 G 10 10.00 Mostly Cloudy SCT090 BKN110 79.9 29.7 16% 78 29.71 0.0
08 16:15 W 5 10.00 Mostly Cloudy BKN090 BKN120 76.8 31.5 19% 77 29.71 0.0
08 15:55 W 8 10.00 Fair CLR 78.1 30.7 18% 77 29.72 0.0
08 15:35 NW 14 G 21 10.00 Fair CLR 80.6 30.6 16% 79 29.72 0.0
08 15:15 W 10 G 23 10.00 Partly Cloudy SCT100 SCT120 78.6 30.2 17% 78 29.74 0.0
08 14:55 NW 15 G 22 10.00 Partly Cloudy SCT120 77.7 31.1 18% 77 29.74 0.0
08 14:35 W 9 10.00 Partly Cloudy SCT100 SCT120 78.3 31.1 18% 77 29.75 0.0
08 14:15 W 6 10.00 Partly Cloudy SCT110 76.5 31.3 19% 77 29.75 0.0
08 13:55 NW 7 10.00 Partly Cloudy SCT110 77.2 31.6 19% 77 29.76 0.0
08 13:35 SW 5 10.00 Partly Cloudy SCT095 75.7 32.9 21% 76 29.77 0.0
08 13:15 NE 3 10.00 Partly Cloudy SCT095 75 32.9 21% 76 29.77 0.0
08 12:55 S 5 10.00 Partly Cloudy SCT095 74.8 34.3 75 51.3 23% 29.78 0.0
08 12:35 Calm 10.00 Fair CLR 73.4 30.4 20% 29.79 0.0
08 12:15 SW 5 10.00 Fair CLR 72.3 31.8 22% 29.8 0.0
08 11:55 SE 5 10.00 Fair CLR 72.5 32 22% 29.8 0.0
08 11:35 Calm 10.00 Partly Cloudy SCT090 71.6 31.6 23% 29.8 0.0
08 11:15 Calm 10.00 Partly Cloudy SCT090 69.8 31.8 25% 29.8 0.0
08 10:55 W 5 10.00 Fair CLR 69.3 35.6 29% 29.8 0.0
08 10:35 SW 3 10.00 Fair CLR 69.4 37.2 31% 29.8 0.0
08 10:15 S 3 10.00 Fair CLR 68 36 31% 29.81 0.0
08 09:55 S 5 10.00 Fair CLR 66.9 36.9 33% 29.81 0.0
08 09:35 SE 7 10.00 Fair CLR 65.7 35.2 32% 29.81 0.0
08 09:10 Calm 10.00 Fair CLR 61.5 35.8 38% 29.82 0.0
08 08:55 Calm 10.00 Fair CLR 59.4 37.9 45% 29.82 0.0
08 08:35 Calm 10.00 Partly Cloudy SCT120 57.7 41.9 56% 29.82 0.0
08 08:15 Calm 10.00 Mostly Cloudy BKN110 56.1 43 62% 29.82 0.0
08 07:55 Calm 10.00 Overcast OVC100 53.8 43.7 69% 29.81 0.0
08 07:35 Calm 10.00 Overcast OVC100 52.3 44.6 75% 29.8 0.0
08 07:15 Calm 10.00 Mostly Cloudy BKN110 51.3 44.2 77% 29.8 0.0
08 06:55 Calm 10.00 Partly Cloudy SCT110 52.3 38.1 56.3 48.9 59% 29.81 0.0
08 06:35 N 5 10.00 Mostly Cloudy SCT065 SCT075 BKN110 52.7 36.5 54% 29.81 0.0
08 05:55 N 7 10.00 Overcast SCT070 OVC100 52.5 33.6 49% 29.82 0.0
08 05:35 Calm 10.00 Overcast OVC100 51.6 35.6 55% 29.81 0.0
08 05:15 N 5 10.00 Mostly Cloudy BKN100 50 35.2 57% 49 29.82 0.0
08 04:55 N 7 10.00 Partly Cloudy SCT110 50 35.1 57% 48 29.82 0.0
08 04:35 N 5 10.00 Mostly Cloudy BKN110 50.7 35.2 56% 29.83 0.0
08 04:15 N 3 10.00 Mostly Cloudy BKN110 51.3 35.2 54% 29.82 0.0
08 03:55 N 7 10.00 Overcast OVC120 52.5 35.1 52% 29.82 0.0
08 03:35 NE 7 10.00 Overcast OVC110 53.1 37.8 56% 29.82 0.0
08 03:15 SW 3 10.00 Overcast OVC110 53.6 36.7 53% 29.83 0.0
08 02:55 Calm 10.00 Overcast OVC110 56.1 33.6 43% 29.83 0.0
08 02:35 NE 8 10.00 Mostly Cloudy SCT095 BKN110 53.4 34.2 48% 29.81 0.0
08 02:15 Calm 10.00 Overcast SCT095 OVC110 53.8 33.4 46% 29.83 0.0
08 01:55 Calm 10.00 Overcast OVC110 53.1 33.1 47% 29.83 0.0
08 01:35 NE 3 10.00 Overcast OVC110 54.3 32.9 44% 29.83 0.0
08 01:15 NE 3 10.00 Mostly Cloudy BKN110 54.9 34.2 46% 29.83 0.0
08 00:55 Calm 10.00 Mostly Cloudy BKN110 53.6 36 72 51.4 51% 29.83 0.0
08 00:35 N 3 10.00 Fair CLR 53.2 31.8 44% 29.83 0.0
08 00:15 N 5 10.00 Fair CLR 53.6 31.5 43% 29.82 0.0
07 23:55 NE 3 10.00 Mostly Cloudy BKN110 56.1 28.4 35% 29.83 0.0
07 23:35 N 3 10.00 Mostly Cloudy BKN110 52.9 30.6 43% 29.83 0.0
07 23:15 N 5 10.00 Partly Cloudy SCT120 52.3 27.7 39% 29.83 0.0
07 22:55 Calm 10.00 Fair CLR 56.8 24.4 29% 29.83 0.0
07 22:35 Calm 10.00 Fair CLR 55.2 26.4 33% 29.83 0.0
07 22:15 Calm 10.00 Partly Cloudy SCT120 56.1 22.1 27% 29.83 0.0
07 21:55 Calm 10.00 Fair CLR 55.2 23 29% 29.83 0.0
07 21:35 Calm 10.00 Fair CLR 58.6 21.9 24% 29.82 0.0
07 21:15 Calm 10.00 Fair CLR 59.9 21.7 23% 29.82 0.0
07 20:55 Calm 10.00 Fair CLR 58.8 22.6 25% 29.81 0.0
07 20:15 N 6 10.00 Fair CLR 63.5 22.6 21% 29.8 0.0
07 19:55 N 7 10.00 Fair CLR 67.3 22.1 18% 29.8 0.0
07 19:35 NW 7 10.00 Fair CLR 69.8 21 16% 29.79 0.0
07 19:15 NW 9 10.00 Fair CLR 71.2 19.6 14% 29.79 0.0
07 18:55 NW 8 10.00 Fair CLR 72 18.9 74.5 67.6 13% 29.79 0.0
07 18:35 NW 12 10.00 Fair CLR 72.9 19.6 13% 29.79 0.0
07 18:15 NW 10 10.00 Fair CLR 72.9 19.8 13% 29.79 0.0
07 17:55 NW 10 10.00 Fair CLR 73.2 19.8 13% 29.79 0.0
07 17:35 NW 10 G 20 10.00 Fair CLR 73.8 19.9 13% 29.79 0.0
07 17:15 NW 8 G 12 10.00 Fair CLR 73.4 18.5 12% 29.79 0.0
07 16:55 NW 16 G 22 10.00 Fair CLR 74.3 21.4 14% 29.79 0.0
07 16:35 NW 15 10.00 Fair CLR 73 21.9 15% 29.79 0.0
07 16:15 W 6 10.00 Fair CLR 72 24.8 17% 29.8 0.0
07 15:55 W 16 G 22 10.00 Fair CLR 73 26.2 17% 29.8 0.0
07 15:35 W 7 G 16 10.00 Fair CLR 73.4 25.2 16% 29.81 0.0
07 15:15 NW 9 G 16 10.00 Fair CLR 72.5 25 17% 29.81 0.0
07 14:55 NW 12 G 24 10.00 Fair CLR 72.5 23.7 16% 29.82 0.0
07 14:35 NW 10 G 18 10.00 Fair CLR 72.3 25.7 17% 29.81 0.0
07 14:15 NW 7 10.00 Fair CLR 70.3 31.1 23% 29.81 0.0
07 13:55 W 12 G 16 10.00 Fair CLR 70.7 31.8 24% 29.82 0.0
07 13:35 W 13 10.00 Fair CLR 69.8 32.4 25% 29.82 0.0
07 13:15 NW 12 G 17 10.00 Fair CLR 70 32.7 25% 29.82 0.0
07 12:55 W 12 G 18 10.00 Fair CLR 69.6 33.1 69.8 46.2 26% 29.83 0.0
07 12:35 NW 8 G 17 10.00 Fair CLR 68.5 33.8 28% 29.83 0.0
07 12:15 SW 10 G 18 10.00 Fair CLR 67.5 34 29% 29.84 0.0
07 11:55 SW 14 G 21 10.00 Fair CLR 67.5 33.6 29% 29.84 0.0
07 11:35 W 16 G 23 10.00 Fair CLR 67.3 32.7 28% 29.85 0.0
07 11:15 W 17 10.00 Fair CLR 66.9 33.1 29% 29.85 0.0
07 10:55 W 12 G 21 10.00 Fair CLR 65.7 33.8 31% 29.85 0.0
07 10:35 SW 10 10.00 Fair CLR 63.3 35.8 36% 29.85 0.0
07 10:15 SW 14 G 20 10.00 Fair CLR 62.4 35.8 37% 29.85 0.0
07 09:55 SW 14 G 18 10.00 Fair CLR 61 36.5 40% 29.86 0.0
07 09:35 SW 15 G 21 10.00 Fair CLR 59 36.5 43% 29.87 0.0
07 09:15 SW 17 G 22 10.00 Fair CLR 57.2 36.9 47% 29.88 0.0
07 08:55 SW 14 G 18 10.00 Fair CLR 54.9 37.6 52% 29.88 0.0
07 08:35 SW 12 10.00 Fair CLR 52.9 38.1 57% 29.88 0.0
07 08:15 SW 12 G 16 10.00 Fair CLR 50.9 38.5 63% 29.89 0.0
07 07:55 SW 9 10.00 Fair CLR 49.5 38.7 67% 46 29.89 0.0
07 07:35 SW 10 10.00 Fair CLR 48.2 38.7 70% 44 29.89 0.0
07 07:15 SW 9 10.00 Fair CLR 46.9 38.3 72% 43 29.89 0.0
07 06:55 SW 12 10.00 Fair CLR 46 37.9 47.3 45 73% 41 29.89 0.0
07 06:35 SW 10 10.00 Fair CLR 45.1 37.6 75% 40 29.9 0.0
07 06:15 SW 9 G 16 10.00 Fair CLR 45.5 37.4 73% 41 29.9 0.0
07 05:55 SW 12 G 17 10.00 Fair CLR 45.9 37.4 72% 41 29.9 0.0
07 05:35 SW 13 10.00 Fair CLR 45.7 36.9 71% 40 29.9 0.0
07 05:15 W 10 10.00 Fair CLR 46 37 71% 42 29.9 0.0
07 04:55 SW 9 10.00 Fair CLR 46.4 37 70% 42 29.9 0.0
07 04:35 SW 9 10.00 Fair CLR 46.6 37 70% 43 29.91 0.0
07 04:15 SW 9 10.00 Fair CLR 46.6 37.2 70% 43 29.91 0.0
07 03:55 SW 9 10.00 Fair CLR 47.1 37 68% 43 29.92 0.0
07 03:35 SW 8 10.00 Fair CLR 46.6 36.7 69% 43 29.92 0.0
07 03:15 SW 8 10.00 Fair CLR 46.9 36.5 67% 44 29.93 0.0
07 02:55 SW 7 10.00 Fair CLR 47.3 35.8 64% 44 29.94 0.0
07 02:35 SW 7 10.00 Fair CLR 47.3 35.2 63% 44 29.95 0.0
07 02:15 SW 8 10.00 Fair CLR 47.3 34.5 61% 44 29.95 0.0
07 01:55 SW 7 10.00 Fair CLR 46.8 33.8 61% 44 29.96 0.0
07 01:35 SW 7 10.00 Fair CLR 46.8 32.9 59% 44 29.97 0.0
07 01:15 SW 6 10.00 Fair CLR 46.4 31.5 56% 44 29.97 0.0
07 00:55 W 7 10.00 Fair CLR 46.4 30.7 61.7 44.1 55% 43 29.98 0.0
07 00:35 W 6 10.00 Fair CLR 45.9 27.5 49% 43 29.98 0.0
07 00:15 Calm 10.00 Fair CLR 46 27.3 48% 29.98 0.0
06 23:55 Calm 10.00 Partly Cloudy SCT100 47.3 25.5 43% 29.98 0.0
06 23:35 Calm 10.00 Mostly Cloudy BKN110 49.3 26.6 41% 29.99 0.0
06 23:15 Calm 10.00 Overcast OVC110 45.5 26.4 47% 29.99 0.0
06 22:55 SW 3 10.00 Mostly Cloudy BKN110 44.6 25.3 47% 29.99 0.0
06 22:35 S 3 10.00 Partly Cloudy SCT110 47.1 23.7 40% 30 0.0
06 22:15 Calm 10.00 Fair CLR 48 21.7 35% 30 0.0
06 21:55 Calm 10.00 Fair CLR 49.1 21.7 34% 30 0.0
06 21:35 Calm 10.00 Fair CLR 51.3 22.1 32% 30 0.0
06 21:15 Calm 10.00 Fair CLR 53.2 21.4 29% 29.99 0.0
06 20:35 Calm 10.00 Partly Cloudy SCT110 54.7 23.5 30% 29.99 0.0
06 20:15 Calm 10.00 Mostly Cloudy BKN100 55.9 23 28% 29.99 0.0
06 19:55 W 3 10.00 Mostly Cloudy BKN100 56.8 22.5 26% 29.99 0.0
06 19:35 W 8 10.00 Mostly Cloudy BKN100 59 21.2 23% 29.99 0.0
06 19:15 W 13 10.00 Mostly Cloudy BKN100 61.5 17.8 18% 29.99 0.0
06 18:55 NW 8 10.00 Mostly Cloudy BKN100 60.6 17.2 63.3 56.8 18% 30 0.0
06 18:35 NW 8 10.00 Partly Cloudy SCT100 60.6 17.8 19% 30 0.0
06 18:15 NW 12 10.00 Mostly Cloudy BKN100 61 18.1 19% 30.01 0.0
06 17:55 NW 14 G 18 10.00 Mostly Cloudy BKN100 63.1 17.2 17% 30.01 0.0
06 17:35 NW 7 10.00 Partly Cloudy SCT100 SCT120 61.7 14.9 16% 30.01 0.0
06 17:15 NW 13 G 16 10.00 Partly Cloudy SCT090 60.4 14.9 17% 30.02 0.0
06 16:55 NW 13 G 16 10.00 Partly Cloudy SCT090 62.4 15.8 16% 30.02 0.0
06 16:35 NW 13 G 20 10.00 Mostly Cloudy SCT090 BKN120 59.5 15.3 18% 30.03 0.0
06 16:15 NW 15 G 21 10.00 Mostly Cloudy BKN090 62.4 16 16% 30.04 0.0
06 15:55 NW 12 G 18 5.00 Mostly Cloudy with Haze BKN090 60.3 16.2 18% 30.05 0.0
06 15:35 NW 12 G 21 10.00 Partly Cloudy SCT090 61.2 15.6 17% 30.06 0.0
06 15:15 NW 13 10.00 Mostly Cloudy BKN090 60.1 16.2 18% 30.06 0.0
06 14:55 NW 16 G 21 10.00 Mostly Cloudy BKN090 60.1 14.7 17% 30.06 0.0
06 14:35 W 16 G 23 10.00 Partly Cloudy SCT090 62.1 16.2 17% 30.07 0.0
06 14:15 N 10 G 29 10.00 Partly Cloudy SCT090 58.8 16.5 19% 30.07 0.0
06 13:55 W 6 G 12 10.00 Partly Cloudy SCT090 59.4 17.2 19% 30.07 0.0
06 13:35 NW 14 G 18 10.00 Mostly Cloudy BKN080 59.2 19 21% 30.08 0.0
06 13:15 NW 6 G 18 10.00 Partly Cloudy SCT080 58.8 19.2 21% 30.09 0.0
06 12:55 W 5 G 23 10.00 Partly Cloudy SCT080 58.3 18.5 58.8 36.7 21% 30.1 0.0
06 12:35 W 9 G 17 10.00 Mostly Cloudy BKN080 BKN100 56.5 18.5 23% 30.1 0.0
06 12:15 NW 10 10.00 Mostly Cloudy BKN080 BKN100 55.9 19.4 24% 30.1 0.0
06 11:55 NW 9 G 23 10.00 Partly Cloudy SCT070 SCT085 54.7 19.8 25% 30.11 0.0
06 11:35 NW 13 G 17 10.00 Partly Cloudy SCT070 55.2 20.7 26% 30.11 0.0
06 10:55 W 8 10.00 Partly Cloudy SCT070 53.6 20.5 27% 30.11 0.0
06 10:35 W 7 G 16 10.00 Partly Cloudy SCT070 54 21.4 28% 30.11 0.0
06 10:15 NW 10 G 17 7.00 Fair CLR 52 22.1 31% 30.11 0.0
Date Time (cdt) Wind (mph) Vis. (mi.) Weather Sky Cond. Air Dwpt Max. Min. Relative Humidity Wind Chill (°F) Heat Index (°F) altimeter (in) sea level (mb) 1 hr 3 hr 6 hr
6 hour
Temperature (ºF) Pressure Precipitation (in)